sensor_id;sensor_type;location;lat;lon;timestamp;P1;P4;P2;P0;N10;N4;N25;N1;N05;TS
85470;SPS30;75873;54.332;18.626;2024-03-29T00:00:32;5.1;;5.1;4.8;;;;;;
85470;SPS30;75873;54.332;18.626;2024-03-29T00:05:32;4.9;;4.9;4.6;;;;;;
85470;SPS30;75873;54.332;18.626;2024-03-29T00:10:32;5.2;;5.2;4.9;;;;;;
85470;SPS30;75873;54.332;18.626;2024-03-29T00:15:33;5.0;;5.0;4.7;;;;;;
85470;SPS30;75873;54.332;18.626;2024-03-29T00:20:32;4.8;;4.8;4.5;;;;;;
85470;SPS30;75873;54.332;18.626;2024-03-29T00:25:32;4.6;;4.6;4.4;;;;;;
85470;SPS30;75873;54.332;18.626;2024-03-29T00:30:32;4.7;;4.7;4.4;;;;;;
85470;SPS30;75873;54.332;18.626;2024-03-29T00:35:32;4.9;;4.9;4.6;;;;;;
85470;SPS30;75873;54.332;18.626;2024-03-29T00:40:32;4.7;;4.7;4.5;;;;;;
85470;SPS30;75873;54.332;18.626;2024-03-29T00:45:32;4.6;;4.6;4.3;;;;;;
85470;SPS30;75873;54.332;18.626;2024-03-29T00:50:32;4.4;;4.4;4.1;;;;;;
85470;SPS30;75873;54.332;18.626;2024-03-29T00:55:32;4.3;;4.3;4.1;;;;;;
85470;SPS30;75873;54.332;18.626;2024-03-29T01:00:32;4.5;;4.5;4.2;;;;;;
85470;SPS30;75873;54.332;18.626;2024-03-29T01:05:32;4.1;;4.1;3.8;;;;;;
85470;SPS30;75873;54.332;18.626;2024-03-29T01:10:32;4.1;;4.1;3.9;;;;;;
85470;SPS30;75873;54.332;18.626;2024-03-29T01:15:32;3.7;;3.7;3.5;;;;;;
85470;SPS30;75873;54.332;18.626;2024-03-29T01:20:32;4.1;;4.1;3.8;;;;;;
85470;SPS30;75873;54.332;18.626;2024-03-29T01:25:32;3.5;;3.5;3.3;;;;;;
85470;SPS30;75873;54.332;18.626;2024-03-29T01:30:32;3.1;;3.1;2.9;;;;;;
85470;SPS30;75873;54.332;18.626;2024-03-29T01:35:32;2.9;;2.9;2.8;;;;;;
85470;SPS30;75873;54.332;18.626;2024-03-29T01:40:32;2.7;;2.7;2.6;;;;;;
85470;SPS30;75873;54.332;18.626;2024-03-29T01:45:32;2.6;;2.6;2.5;;;;;;
85470;SPS30;75873;54.332;18.626;2024-03-29T01:50:32;2.3;;2.3;2.2;;;;;;
85470;SPS30;75873;54.332;18.626;2024-03-29T01:55:32;2.4;;2.4;2.3;;;;;;
85470;SPS30;75873;54.332;18.626;2024-03-29T02:00:32;2.4;;2.4;2.3;;;;;;
85470;SPS30;75873;54.332;18.626;2024-03-29T02:05:32;2.3;;2.3;2.2;;;;;;
85470;SPS30;75873;54.332;18.626;2024-03-29T02:10:32;2.4;;2.4;2.3;;;;;;
85470;SPS30;75873;54.332;18.626;2024-03-29T02:15:32;2.2;;2.2;2.1;;;;;;
85470;SPS30;75873;54.332;18.626;2024-03-29T02:20:32;2.1;;2.1;2.0;;;;;;
85470;SPS30;75873;54.332;18.626;2024-03-29T02:25:32;1.8;;1.8;1.7;;;;;;
85470;SPS30;75873;54.332;18.626;2024-03-29T02:30:32;1.8;;1.8;1.7;;;;;;
85470;SPS30;75873;54.332;18.626;2024-03-29T02:35:32;1.8;;1.8;1.7;;;;;;
85470;SPS30;75873;54.332;18.626;2024-03-29T02:40:32;1.8;;1.8;1.7;;;;;;
85470;SPS30;75873;54.332;18.626;2024-03-29T02:45:32;2.0;;2.0;1.9;;;;;;
85470;SPS30;75873;54.332;18.626;2024-03-29T02:50:32;1.8;;1.8;1.7;;;;;;
85470;SPS30;75873;54.332;18.626;2024-03-29T02:55:32;1.9;;1.9;1.8;;;;;;
85470;SPS30;75873;54.332;18.626;2024-03-29T03:00:33;2.1;;2.1;2.0;;;;;;
85470;SPS30;75873;54.332;18.626;2024-03-29T03:05:32;2.0;;2.0;1.9;;;;;;
85470;SPS30;75873;54.332;18.626;2024-03-29T03:10:32;2.1;;2.1;2.0;;;;;;
85470;SPS30;75873;54.332;18.626;2024-03-29T03:15:32;2.0;;2.0;1.9;;;;;;
85470;SPS30;75873;54.332;18.626;2024-03-29T03:20:32;2.1;;2.1;2.0;;;;;;
85470;SPS30;75873;54.332;18.626;2024-03-29T03:25:32;1.8;;1.8;1.7;;;;;;
85470;SPS30;75873;54.332;18.626;2024-03-29T03:30:32;1.7;;1.7;1.6;;;;;;
85470;SPS30;75873;54.332;18.626;2024-03-29T03:35:32;1.7;;1.7;1.6;;;;;;
85470;SPS30;75873;54.332;18.626;2024-03-29T03:40:32;1.5;;1.5;1.4;;;;;;
85470;SPS30;75873;54.332;18.626;2024-03-29T03:45:35;1.6;;1.6;1.5;;;;;;
85470;SPS30;75873;54.332;18.626;2024-03-29T03:50:32;1.6;;1.6;1.5;;;;;;
85470;SPS30;75873;54.332;18.626;2024-03-29T03:55:32;2.4;;2.4;2.3;;;;;;
85470;SPS30;75873;54.332;18.626;2024-03-29T04:00:32;4.5;;4.5;4.2;;;;;;
85470;SPS30;75873;54.332;18.626;2024-03-29T04:05:32;4.9;;4.9;4.6;;;;;;
85470;SPS30;75873;54.332;18.626;2024-03-29T04:10:37;7.7;;7.6;7.1;;;;;;
85470;SPS30;75873;54.332;18.626;2024-03-29T04:15:32;3.1;;3.1;3.0;;;;;;
85470;SPS30;75873;54.332;18.626;2024-03-29T04:20:32;2.2;;2.2;2.1;;;;;;
85470;SPS30;75873;54.332;18.626;2024-03-29T04:25:32;4.5;;4.5;4.2;;;;;;
85470;SPS30;75873;54.332;18.626;2024-03-29T04:30:32;3.0;;3.0;2.8;;;;;;
85470;SPS30;75873;54.332;18.626;2024-03-29T04:35:32;2.6;;2.6;2.5;;;;;;
85470;SPS30;75873;54.332;18.626;2024-03-29T04:40:32;1.9;;1.9;1.8;;;;;;
85470;SPS30;75873;54.332;18.626;2024-03-29T04:45:32;1.8;;1.8;1.7;;;;;;
85470;SPS30;75873;54.332;18.626;2024-03-29T04:50:32;1.9;;1.9;1.8;;;;;;
85470;SPS30;75873;54.332;18.626;2024-03-29T04:55:32;2.3;;2.3;2.1;;;;;;
85470;SPS30;75873;54.332;18.626;2024-03-29T05:00:32;5.5;;5.5;5.2;;;;;;
85470;SPS30;75873;54.332;18.626;2024-03-29T05:05:32;4.0;;4.0;3.7;;;;;;
85470;SPS30;75873;54.332;18.626;2024-03-29T05:10:32;18.0;;17.2;15.4;;;;;;
85470;SPS30;75873;54.332;18.626;2024-03-29T05:15:32;10.0;;9.8;9.0;;;;;;
85470;SPS30;75873;54.332;18.626;2024-03-29T05:20:32;5.0;;5.0;4.7;;;;;;
85470;SPS30;75873;54.332;18.626;2024-03-29T05:25:32;3.9;;3.9;3.7;;;;;;
85470;SPS30;75873;54.332;18.626;2024-03-29T05:30:32;3.6;;3.6;3.4;;;;;;
85470;SPS30;75873;54.332;18.626;2024-03-29T05:35:32;3.1;;3.1;3.0;;;;;;
85470;SPS30;75873;54.332;18.626;2024-03-29T05:40:32;2.8;;2.8;2.6;;;;;;
85470;SPS30;75873;54.332;18.626;2024-03-29T05:45:32;2.6;;2.6;2.5;;;;;;
85470;SPS30;75873;54.332;18.626;2024-03-29T05:50:32;2.4;;2.4;2.3;;;;;;
85470;SPS30;75873;54.332;18.626;2024-03-29T05:55:32;2.2;;2.2;2.1;;;;;;
85470;SPS30;75873;54.332;18.626;2024-03-29T06:00:32;2.3;;2.3;2.2;;;;;;
85470;SPS30;75873;54.332;18.626;2024-03-29T06:05:32;2.3;;2.3;2.2;;;;;;
85470;SPS30;75873;54.332;18.626;2024-03-29T06:10:32;2.2;;2.2;2.0;;;;;;
85470;SPS30;75873;54.332;18.626;2024-03-29T06:15:32;2.1;;2.1;2.0;;;;;;
85470;SPS30;75873;54.332;18.626;2024-03-29T06:20:32;2.3;;2.3;2.2;;;;;;
85470;SPS30;75873;54.332;18.626;2024-03-29T06:25:32;2.3;;2.3;2.1;;;;;;
85470;SPS30;75873;54.332;18.626;2024-03-29T06:30:32;2.3;;2.3;2.2;;;;;;
85470;SPS30;75873;54.332;18.626;2024-03-29T06:35:32;2.2;;2.2;2.0;;;;;;
85470;SPS30;75873;54.332;18.626;2024-03-29T06:40:32;2.6;;2.6;2.5;;;;;;
85470;SPS30;75873;54.332;18.626;2024-03-29T06:45:32;2.7;;2.7;2.5;;;;;;
85470;SPS30;75873;54.332;18.626;2024-03-29T06:50:32;2.9;;2.9;2.7;;;;;;
85470;SPS30;75873;54.332;18.626;2024-03-29T06:55:32;2.3;;2.3;2.2;;;;;;
85470;SPS30;75873;54.332;18.626;2024-03-29T07:00:32;2.3;;2.3;2.2;;;;;;
85470;SPS30;75873;54.332;18.626;2024-03-29T07:05:32;2.5;;2.5;2.4;;;;;;
85470;SPS30;75873;54.332;18.626;2024-03-29T07:10:32;2.0;;2.0;1.9;;;;;;
85470;SPS30;75873;54.332;18.626;2024-03-29T07:15:32;2.1;;2.1;2.0;;;;;;
85470;SPS30;75873;54.332;18.626;2024-03-29T07:20:32;2.6;;2.6;2.4;;;;;;
85470;SPS30;75873;54.332;18.626;2024-03-29T07:25:32;2.5;;2.5;2.3;;;;;;
85470;SPS30;75873;54.332;18.626;2024-03-29T07:30:32;2.3;;2.3;2.1;;;;;;
85470;SPS30;75873;54.332;18.626;2024-03-29T07:35:32;3.8;;3.8;3.6;;;;;;
85470;SPS30;75873;54.332;18.626;2024-03-29T07:40:32;2.2;;2.2;2.1;;;;;;
85470;SPS30;75873;54.332;18.626;2024-03-29T07:45:32;2.4;;2.4;2.2;;;;;;
85470;SPS30;75873;54.332;18.626;2024-03-29T07:50:32;2.4;;2.4;2.3;;;;;;
85470;SPS30;75873;54.332;18.626;2024-03-29T07:55:32;3.6;;3.6;3.4;;;;;;
85470;SPS30;75873;54.332;18.626;2024-03-29T08:00:33;2.3;;2.3;2.2;;;;;;
85470;SPS30;75873;54.332;18.626;2024-03-29T08:05:32;2.2;;2.2;2.1;;;;;;
85470;SPS30;75873;54.332;18.626;2024-03-29T08:10:32;2.6;;2.6;2.5;;;;;;
85470;SPS30;75873;54.332;18.626;2024-03-29T08:15:32;2.0;;2.0;1.9;;;;;;
85470;SPS30;75873;54.332;18.626;2024-03-29T08:20:32;2.4;;2.4;2.2;;;;;;
85470;SPS30;75873;54.332;18.626;2024-03-29T08:25:32;1.9;;1.9;1.8;;;;;;
85470;SPS30;75873;54.332;18.626;2024-03-29T08:30:32;1.9;;1.9;1.8;;;;;;
85470;SPS30;75873;54.332;18.626;2024-03-29T08:35:32;2.1;;2.0;1.9;;;;;;
85470;SPS30;75873;54.332;18.626;2024-03-29T08:40:32;2.1;;2.1;1.9;;;;;;
85470;SPS30;75873;54.332;18.626;2024-03-29T08:45:32;1.8;;1.8;1.7;;;;;;
85470;SPS30;75873;54.332;18.626;2024-03-29T08:50:32;1.9;;1.9;1.8;;;;;;
85470;SPS30;75873;54.332;18.626;2024-03-29T08:55:32;1.7;;1.7;1.6;;;;;;
85470;SPS30;75873;54.332;18.626;2024-03-29T09:00:32;1.7;;1.7;1.6;;;;;;
85470;SPS30;75873;54.332;18.626;2024-03-29T09:05:32;1.9;;1.9;1.8;;;;;;
85470;SPS30;75873;54.332;18.626;2024-03-29T09:10:32;1.7;;1.7;1.6;;;;;;
85470;SPS30;75873;54.332;18.626;2024-03-29T09:15:32;2.1;;2.1;2.0;;;;;;
85470;SPS30;75873;54.332;18.626;2024-03-29T09:20:32;1.9;;1.9;1.7;;;;;;
85470;SPS30;75873;54.332;18.626;2024-03-29T09:25:32;2.1;;2.1;2.0;;;;;;
85470;SPS30;75873;54.332;18.626;2024-03-29T09:30:32;1.8;;1.8;1.7;;;;;;
85470;SPS30;75873;54.332;18.626;2024-03-29T09:35:32;1.4;;1.4;1.4;;;;;;
85470;SPS30;75873;54.332;18.626;2024-03-29T09:40:32;1.5;;1.5;1.4;;;;;;
85470;SPS30;75873;54.332;18.626;2024-03-29T09:45:33;1.8;;1.7;1.6;;;;;;
85470;SPS30;75873;54.332;18.626;2024-03-29T09:50:32;1.6;;1.6;1.5;;;;;;
85470;SPS30;75873;54.332;18.626;2024-03-29T09:55:32;1.4;;1.4;1.4;;;;;;
85470;SPS30;75873;54.332;18.626;2024-03-29T10:00:32;1.9;;1.9;1.7;;;;;;
85470;SPS30;75873;54.332;18.626;2024-03-29T10:05:32;1.6;;1.6;1.5;;;;;;
85470;SPS30;75873;54.332;18.626;2024-03-29T10:10:32;1.6;;1.6;1.6;;;;;;
85470;SPS30;75873;54.332;18.626;2024-03-29T10:15:32;1.7;;1.7;1.6;;;;;;
85470;SPS30;75873;54.332;18.626;2024-03-29T10:20:32;1.9;;1.9;1.8;;;;;;
85470;SPS30;75873;54.332;18.626;2024-03-29T10:25:34;1.8;;1.8;1.7;;;;;;
85470;SPS30;75873;54.332;18.626;2024-03-29T10:30:32;2.0;;2.0;1.9;;;;;;
85470;SPS30;75873;54.332;18.626;2024-03-29T10:35:32;1.4;;1.4;1.4;;;;;;
85470;SPS30;75873;54.332;18.626;2024-03-29T10:40:32;1.5;;1.5;1.4;;;;;;
85470;SPS30;75873;54.332;18.626;2024-03-29T10:45:32;1.6;;1.6;1.5;;;;;;
85470;SPS30;75873;54.332;18.626;2024-03-29T10:50:32;1.5;;1.5;1.4;;;;;;
85470;SPS30;75873;54.332;18.626;2024-03-29T10:55:32;2.4;;2.4;2.3;;;;;;
85470;SPS30;75873;54.332;18.626;2024-03-29T11:00:33;1.7;;1.6;1.5;;;;;;
85470;SPS30;75873;54.332;18.626;2024-03-29T11:05:32;1.5;;1.4;1.2;;;;;;
85470;SPS30;75873;54.332;18.626;2024-03-29T11:10:33;1.8;;1.6;1.4;;;;;;
85470;SPS30;75873;54.332;18.626;2024-03-29T11:15:32;1.5;;1.4;1.2;;;;;;
85470;SPS30;75873;54.332;18.626;2024-03-29T11:20:32;1.3;;1.2;1.1;;;;;;
85470;SPS30;75873;54.332;18.626;2024-03-29T11:25:38;1.2;;1.1;1.0;;;;;;
85470;SPS30;75873;54.332;18.626;2024-03-29T11:30:32;1.2;;1.2;1.0;;;;;;
85470;SPS30;75873;54.332;18.626;2024-03-29T11:35:32;1.2;;1.1;1.0;;;;;;
85470;SPS30;75873;54.332;18.626;2024-03-29T11:40:32;1.5;;1.4;1.2;;;;;;
85470;SPS30;75873;54.332;18.626;2024-03-29T11:45:32;1.5;;1.4;1.1;;;;;;
85470;SPS30;75873;54.332;18.626;2024-03-29T11:50:32;1.5;;1.4;1.2;;;;;;
85470;SPS30;75873;54.332;18.626;2024-03-29T11:55:32;1.5;;1.5;1.3;;;;;;
85470;SPS30;75873;54.332;18.626;2024-03-29T12:00:32;1.4;;1.3;1.2;;;;;;
85470;SPS30;75873;54.332;18.626;2024-03-29T12:05:32;1.5;;1.5;1.3;;;;;;
85470;SPS30;75873;54.332;18.626;2024-03-29T12:10:32;1.4;;1.4;1.3;;;;;;
85470;SPS30;75873;54.332;18.626;2024-03-29T12:15:32;1.6;;1.6;1.5;;;;;;
85470;SPS30;75873;54.332;18.626;2024-03-29T12:20:32;1.7;;1.7;1.6;;;;;;
85470;SPS30;75873;54.332;18.626;2024-03-29T12:25:33;1.5;;1.5;1.4;;;;;;
85470;SPS30;75873;54.332;18.626;2024-03-29T12:30:32;1.6;;1.6;1.5;;;;;;
85470;SPS30;75873;54.332;18.626;2024-03-29T12:35:32;1.5;;1.5;1.4;;;;;;
85470;SPS30;75873;54.332;18.626;2024-03-29T12:40:32;1.8;;1.8;1.7;;;;;;
85470;SPS30;75873;54.332;18.626;2024-03-29T12:45:32;1.6;;1.6;1.5;;;;;;
85470;SPS30;75873;54.332;18.626;2024-03-29T12:50:32;1.6;;1.6;1.5;;;;;;
85470;SPS30;75873;54.332;18.626;2024-03-29T12:55:32;1.3;;1.3;1.2;;;;;;
85470;SPS30;75873;54.332;18.626;2024-03-29T13:00:32;1.5;;1.5;1.4;;;;;;
85470;SPS30;75873;54.332;18.626;2024-03-29T13:05:32;1.5;;1.4;1.3;;;;;;
85470;SPS30;75873;54.332;18.626;2024-03-29T13:10:32;1.3;;1.3;1.1;;;;;;
85470;SPS30;75873;54.332;18.626;2024-03-29T13:15:32;1.5;;1.4;1.3;;;;;;
85470;SPS30;75873;54.332;18.626;2024-03-29T13:20:32;1.3;;1.2;1.1;;;;;;
85470;SPS30;75873;54.332;18.626;2024-03-29T13:25:32;1.4;;1.3;1.2;;;;;;
85470;SPS30;75873;54.332;18.626;2024-03-29T13:30:32;1.9;;1.8;1.6;;;;;;
85470;SPS30;75873;54.332;18.626;2024-03-29T13:35:32;1.7;;1.6;1.4;;;;;;
85470;SPS30;75873;54.332;18.626;2024-03-29T13:40:32;1.6;;1.6;1.4;;;;;;
85470;SPS30;75873;54.332;18.626;2024-03-29T13:45:32;1.5;;1.5;1.4;;;;;;
85470;SPS30;75873;54.332;18.626;2024-03-29T13:50:32;2.6;;2.5;2.2;;;;;;
85470;SPS30;75873;54.332;18.626;2024-03-29T13:55:32;7.5;;6.4;5.1;;;;;;
85470;SPS30;75873;54.332;18.626;2024-03-29T14:00:32;2.0;;1.8;1.5;;;;;;
85470;SPS30;75873;54.332;18.626;2024-03-29T14:05:32;8.8;;7.9;6.6;;;;;;
85470;SPS30;75873;54.332;18.626;2024-03-29T14:10:32;1.9;;1.7;1.3;;;;;;
85470;SPS30;75873;54.332;18.626;2024-03-29T14:15:32;1.6;;1.4;1.2;;;;;;
85470;SPS30;75873;54.332;18.626;2024-03-29T14:20:32;1.8;;1.6;1.4;;;;;;
85470;SPS30;75873;54.332;18.626;2024-03-29T14:25:32;1.5;;1.4;1.2;;;;;;
85470;SPS30;75873;54.332;18.626;2024-03-29T14:30:32;1.5;;1.3;1.1;;;;;;
85470;SPS30;75873;54.332;18.626;2024-03-29T14:35:32;1.6;;1.4;1.1;;;;;;
85470;SPS30;75873;54.332;18.626;2024-03-29T14:40:32;1.6;;1.4;1.2;;;;;;
85470;SPS30;75873;54.332;18.626;2024-03-29T14:45:32;2.3;;2.1;1.8;;;;;;
85470;SPS30;75873;54.332;18.626;2024-03-29T14:50:32;2.7;;2.5;2.3;;;;;;
85470;SPS30;75873;54.332;18.626;2024-03-29T14:55:32;2.5;;2.3;1.9;;;;;;
85470;SPS30;75873;54.332;18.626;2024-03-29T15:00:32;1.9;;1.7;1.4;;;;;;
85470;SPS30;75873;54.332;18.626;2024-03-29T15:05:32;3.4;;3.1;2.6;;;;;;
85470;SPS30;75873;54.332;18.626;2024-03-29T15:10:32;2.9;;2.7;2.2;;;;;;
85470;SPS30;75873;54.332;18.626;2024-03-29T15:15:32;2.2;;2.1;1.9;;;;;;
85470;SPS30;75873;54.332;18.626;2024-03-29T15:20:33;2.0;;1.9;1.7;;;;;;
85470;SPS30;75873;54.332;18.626;2024-03-29T15:25:33;2.1;;2.0;1.8;;;;;;
85470;SPS30;75873;54.332;18.626;2024-03-29T15:30:32;2.6;;2.5;2.3;;;;;;
85470;SPS30;75873;54.332;18.626;2024-03-29T15:35:32;3.5;;3.4;3.1;;;;;;
85470;SPS30;75873;54.332;18.626;2024-03-29T15:40:32;3.1;;3.0;2.8;;;;;;
85470;SPS30;75873;54.332;18.626;2024-03-29T15:45:32;2.6;;2.5;2.3;;;;;;
85470;SPS30;75873;54.332;18.626;2024-03-29T15:50:32;2.9;;2.9;2.6;;;;;;
85470;SPS30;75873;54.332;18.626;2024-03-29T15:55:32;2.4;;2.4;2.3;;;;;;
85470;SPS30;75873;54.332;18.626;2024-03-29T16:00:32;2.2;;2.2;2.1;;;;;;
85470;SPS30;75873;54.332;18.626;2024-03-29T16:05:32;3.3;;3.2;3.0;;;;;;
85470;SPS30;75873;54.332;18.626;2024-03-29T16:10:32;5.1;;4.8;4.3;;;;;;
85470;SPS30;75873;54.332;18.626;2024-03-29T16:15:32;5.9;;5.6;5.1;;;;;;
85470;SPS30;75873;54.332;18.626;2024-03-29T16:20:32;4.9;;4.7;4.3;;;;;;
85470;SPS30;75873;54.332;18.626;2024-03-29T16:25:32;6.3;;6.1;5.5;;;;;;
85470;SPS30;75873;54.332;18.626;2024-03-29T16:30:32;4.6;;4.4;3.9;;;;;;
85470;SPS30;75873;54.332;18.626;2024-03-29T16:35:32;3.9;;3.7;3.3;;;;;;
85470;SPS30;75873;54.332;18.626;2024-03-29T16:40:32;4.6;;4.2;3.6;;;;;;
85470;SPS30;75873;54.332;18.626;2024-03-29T16:45:32;4.8;;4.4;3.8;;;;;;
85470;SPS30;75873;54.332;18.626;2024-03-29T16:50:32;6.9;;6.6;5.9;;;;;;
85470;SPS30;75873;54.332;18.626;2024-03-29T16:55:32;5.8;;5.5;5.0;;;;;;
85470;SPS30;75873;54.332;18.626;2024-03-29T17:00:32;4.8;;4.7;4.4;;;;;;
85470;SPS30;75873;54.332;18.626;2024-03-29T17:05:32;5.8;;5.8;5.5;;;;;;
85470;SPS30;75873;54.332;18.626;2024-03-29T17:10:32;7.2;;7.0;6.5;;;;;;
85470;SPS30;75873;54.332;18.626;2024-03-29T17:15:32;8.2;;8.0;7.4;;;;;;
85470;SPS30;75873;54.332;18.626;2024-03-29T17:20:32;10.3;;10.1;9.3;;;;;;
85470;SPS30;75873;54.332;18.626;2024-03-29T17:25:32;13.2;;12.8;11.6;;;;;;
85470;SPS30;75873;54.332;18.626;2024-03-29T17:30:32;18.9;;17.7;15.6;;;;;;
85470;SPS30;75873;54.332;18.626;2024-03-29T17:35:32;19.0;;18.1;16.2;;;;;;
85470;SPS30;75873;54.332;18.626;2024-03-29T17:40:32;16.3;;15.7;14.3;;;;;;
85470;SPS30;75873;54.332;18.626;2024-03-29T17:45:32;13.9;;13.5;12.4;;;;;;
85470;SPS30;75873;54.332;18.626;2024-03-29T17:50:32;13.8;;13.4;12.2;;;;;;
85470;SPS30;75873;54.332;18.626;2024-03-29T17:55:32;13.5;;13.3;12.4;;;;;;
85470;SPS30;75873;54.332;18.626;2024-03-29T18:00:32;15.4;;14.9;13.6;;;;;;
85470;SPS30;75873;54.332;18.626;2024-03-29T18:05:32;14.3;;13.9;12.9;;;;;;
85470;SPS30;75873;54.332;18.626;2024-03-29T18:10:33;13.8;;13.4;12.3;;;;;;
85470;SPS30;75873;54.332;18.626;2024-03-29T18:15:32;14.9;;14.6;13.4;;;;;;
85470;SPS30;75873;54.332;18.626;2024-03-29T18:20:32;14.8;;14.6;13.5;;;;;;
85470;SPS30;75873;54.332;18.626;2024-03-29T18:25:32;14.9;;14.5;13.4;;;;;;
85470;SPS30;75873;54.332;18.626;2024-03-29T18:30:33;13.9;;13.6;12.7;;;;;;
85470;SPS30;75873;54.332;18.626;2024-03-29T18:35:32;13.5;;12.9;11.6;;;;;;
85470;SPS30;75873;54.332;18.626;2024-03-29T18:40:32;15.9;;15.4;14.1;;;;;;
85470;SPS30;75873;54.332;18.626;2024-03-29T18:45:32;19.4;;18.8;17.2;;;;;;
85470;SPS30;75873;54.332;18.626;2024-03-29T18:50:32;20.2;;18.7;16.2;;;;;;
85470;SPS30;75873;54.332;18.626;2024-03-29T18:55:32;18.8;;18.0;16.2;;;;;;
85470;SPS30;75873;54.332;18.626;2024-03-29T19:00:32;12.6;;12.2;11.2;;;;;;
85470;SPS30;75873;54.332;18.626;2024-03-29T19:05:32;11.2;;10.7;9.7;;;;;;
85470;SPS30;75873;54.332;18.626;2024-03-29T19:10:32;11.2;;10.8;9.9;;;;;;
85470;SPS30;75873;54.332;18.626;2024-03-29T19:15:32;9.6;;9.4;8.7;;;;;;
85470;SPS30;75873;54.332;18.626;2024-03-29T19:20:32;6.4;;6.3;5.8;;;;;;
85470;SPS30;75873;54.332;18.626;2024-03-29T19:25:32;6.3;;6.2;5.9;;;;;;
85470;SPS30;75873;54.332;18.626;2024-03-29T19:30:33;9.2;;9.0;8.2;;;;;;
85470;SPS30;75873;54.332;18.626;2024-03-29T19:35:32;10.4;;10.1;9.3;;;;;;
85470;SPS30;75873;54.332;18.626;2024-03-29T19:40:32;11.5;;11.1;10.0;;;;;;
85470;SPS30;75873;54.332;18.626;2024-03-29T19:45:32;12.4;;11.8;10.7;;;;;;
85470;SPS30;75873;54.332;18.626;2024-03-29T19:50:32;11.5;;11.2;10.3;;;;;;
85470;SPS30;75873;54.332;18.626;2024-03-29T19:55:32;11.7;;11.5;10.7;;;;;;
85470;SPS30;75873;54.332;18.626;2024-03-29T20:00:33;13.6;;13.5;12.7;;;;;;
85470;SPS30;75873;54.332;18.626;2024-03-29T20:05:32;12.4;;12.1;11.2;;;;;;
85470;SPS30;75873;54.332;18.626;2024-03-29T20:10:37;12.8;;12.4;11.3;;;;;;
85470;SPS30;75873;54.332;18.626;2024-03-29T20:15:37;14.4;;13.6;12.1;;;;;;
85470;SPS30;75873;54.332;18.626;2024-03-29T20:20:32;17.6;;16.3;14.1;;;;;;
85470;SPS30;75873;54.332;18.626;2024-03-29T20:25:32;25.2;;21.9;17.4;;;;;;
85470;SPS30;75873;54.332;18.626;2024-03-29T20:30:32;18.9;;17.9;15.9;;;;;;
85470;SPS30;75873;54.332;18.626;2024-03-29T20:35:38;17.4;;16.9;15.6;;;;;;
85470;SPS30;75873;54.332;18.626;2024-03-29T20:40:32;16.6;;16.2;14.9;;;;;;
85470;SPS30;75873;54.332;18.626;2024-03-29T20:45:32;16.6;;16.3;15.1;;;;;;
85470;SPS30;75873;54.332;18.626;2024-03-29T20:50:32;16.3;;15.9;14.7;;;;;;
85470;SPS30;75873;54.332;18.626;2024-03-29T20:55:32;16.1;;15.7;14.4;;;;;;
85470;SPS30;75873;54.332;18.626;2024-03-29T21:00:32;15.8;;15.4;14.2;;;;;;
85470;SPS30;75873;54.332;18.626;2024-03-29T21:05:33;15.6;;15.5;14.6;;;;;;
85470;SPS30;75873;54.332;18.626;2024-03-29T21:10:33;15.1;;14.7;13.5;;;;;;
85470;SPS30;75873;54.332;18.626;2024-03-29T21:15:33;18.3;;17.1;15.1;;;;;;
85470;SPS30;75873;54.332;18.626;2024-03-29T21:20:32;17.0;;16.5;15.1;;;;;;
85470;SPS30;75873;54.332;18.626;2024-03-29T21:25:32;15.0;;14.4;13.1;;;;;;
85470;SPS30;75873;54.332;18.626;2024-03-29T21:30:32;10.7;;10.7;10.0;;;;;;
85470;SPS30;75873;54.332;18.626;2024-03-29T21:35:32;11.1;;10.9;10.2;;;;;;
85470;SPS30;75873;54.332;18.626;2024-03-29T21:40:32;10.7;;10.5;9.7;;;;;;
85470;SPS30;75873;54.332;18.626;2024-03-29T21:45:32;9.9;;9.7;9.0;;;;;;
85470;SPS30;75873;54.332;18.626;2024-03-29T21:50:32;9.9;;9.7;9.0;;;;;;
85470;SPS30;75873;54.332;18.626;2024-03-29T21:55:32;8.9;;8.8;8.3;;;;;;
85470;SPS30;75873;54.332;18.626;2024-03-29T22:00:32;9.2;;9.0;8.4;;;;;;
85470;SPS30;75873;54.332;18.626;2024-03-29T22:05:32;8.6;;8.4;7.9;;;;;;
85470;SPS30;75873;54.332;18.626;2024-03-29T22:10:32;8.3;;8.2;7.7;;;;;;
85470;SPS30;75873;54.332;18.626;2024-03-29T22:15:32;8.6;;8.3;7.7;;;;;;
85470;SPS30;75873;54.332;18.626;2024-03-29T22:20:32;8.6;;8.5;7.9;;;;;;
85470;SPS30;75873;54.332;18.626;2024-03-29T22:25:32;8.2;;8.2;7.7;;;;;;
85470;SPS30;75873;54.332;18.626;2024-03-29T22:30:32;8.0;;7.9;7.4;;;;;;
85470;SPS30;75873;54.332;18.626;2024-03-29T22:35:32;7.5;;7.5;7.1;;;;;;
85470;SPS30;75873;54.332;18.626;2024-03-29T22:40:32;7.6;;7.4;6.8;;;;;;
85470;SPS30;75873;54.332;18.626;2024-03-29T22:45:32;6.4;;6.4;6.0;;;;;;
85470;SPS30;75873;54.332;18.626;2024-03-29T22:50:32;6.8;;6.7;6.2;;;;;;
85470;SPS30;75873;54.332;18.626;2024-03-29T22:55:32;6.4;;6.2;5.6;;;;;;
85470;SPS30;75873;54.332;18.626;2024-03-29T23:00:32;6.0;;5.9;5.6;;;;;;
85470;SPS30;75873;54.332;18.626;2024-03-29T23:05:32;6.2;;6.2;5.8;;;;;;
85470;SPS30;75873;54.332;18.626;2024-03-29T23:10:32;6.3;;6.3;5.9;;;;;;
85470;SPS30;75873;54.332;18.626;2024-03-29T23:15:32;5.7;;5.7;5.3;;;;;;
85470;SPS30;75873;54.332;18.626;2024-03-29T23:20:32;5.2;;5.2;4.8;;;;;;
85470;SPS30;75873;54.332;18.626;2024-03-29T23:25:32;6.1;;6.0;5.6;;;;;;
85470;SPS30;75873;54.332;18.626;2024-03-29T23:30:32;5.6;;5.6;5.3;;;;;;
85470;SPS30;75873;54.332;18.626;2024-03-29T23:35:32;5.7;;5.7;5.4;;;;;;
85470;SPS30;75873;54.332;18.626;2024-03-29T23:40:32;5.5;;5.4;5.0;;;;;;
85470;SPS30;75873;54.332;18.626;2024-03-29T23:45:32;6.2;;6.1;5.7;;;;;;
85470;SPS30;75873;54.332;18.626;2024-03-29T23:50:32;5.8;;5.8;5.5;;;;;;
85470;SPS30;75873;54.332;18.626;2024-03-29T23:55:32;6.0;;5.9;5.5;;;;;;
